createdAt,value
2022-11-02T00:00:53.968Z,97.73
2022-11-02T00:03:20.483Z,97.95
2022-11-02T00:05:46.951Z,98.28
2022-11-02T00:08:13.356Z,98.21
2022-11-02T00:10:39.785Z,98.57
2022-11-02T00:13:06.469Z,97.65
2022-11-02T00:15:36.089Z,98.37
2022-11-02T00:18:05.826Z,98.19
2022-11-02T00:20:32.265Z,98.31
2022-11-02T00:23:03.927Z,98.48
2022-11-02T00:25:30.582Z,98.26
2022-11-02T00:27:57.047Z,97.95
2022-11-02T00:30:23.461Z,97.67
2022-11-02T00:32:50.890Z,98.03
2022-11-02T00:35:17.244Z,98.15
2022-11-02T00:37:43.755Z,98.30
2022-11-02T00:40:11.230Z,97.36
2022-11-02T00:42:37.790Z,97.75
2022-11-02T00:45:05.028Z,98.52
2022-11-02T00:47:31.368Z,97.62
2022-11-02T00:49:57.728Z,97.91
2022-11-02T00:52:24.065Z,97.57
2022-11-02T00:54:50.479Z,97.73
2022-11-02T00:57:17.066Z,96.58
2022-11-02T00:59:43.500Z,97.58
2022-11-02T01:02:10.025Z,97.19
2022-11-02T01:04:37.038Z,97.45
2022-11-02T01:07:03.879Z,97.19
2022-11-02T01:09:30.280Z,97.39
2022-11-02T01:11:57.221Z,97.94
2022-11-02T01:14:23.859Z,97.68
2022-11-02T01:16:50.382Z,97.67
2022-11-02T01:19:16.796Z,97.25
2022-11-02T01:21:43.155Z,97.52
2022-11-02T01:24:09.630Z,97.87
2022-11-02T01:26:36.036Z,98.06
2022-11-02T01:29:02.419Z,98.08
2022-11-02T01:31:28.776Z,98.17
2022-11-02T01:33:55.111Z,97.87
2022-11-02T01:38:49.393Z,97.90
2022-11-02T01:41:17.620Z,97.41
2022-11-02T01:43:46.762Z,97.57
2022-11-02T01:46:19.960Z,97.99
2022-11-02T01:48:52.842Z,98.38
2022-11-02T01:51:32.614Z,97.49
2022-11-02T01:54:05.309Z,97.83
2022-11-02T01:56:33.459Z,97.73
2022-11-02T01:59:04.092Z,96.58
2022-11-02T02:01:31.430Z,96.58
2022-11-02T02:03:58.252Z,97.56
2022-11-02T02:06:28.211Z,97.15
2022-11-02T02:08:58.880Z,97.19
2022-11-02T02:11:31.076Z,96.91
2022-11-02T02:14:05.243Z,96.99
2022-11-02T02:16:46.212Z,96.99
2022-11-02T02:19:35.805Z,97.49
2022-11-02T02:22:23.009Z,97.31
2022-11-02T02:25:14.685Z,96.65
2022-11-02T02:27:59.315Z,96.50
2022-11-02T02:30:26.149Z,96.66
2022-11-02T02:33:05.630Z,96.23
2022-11-02T02:35:49.266Z,96.84
2022-11-02T02:38:27.453Z,96.87
2022-11-02T02:41:09.757Z,97.53
2022-11-02T02:43:46.628Z,97.59
2022-11-02T02:46:17.128Z,97.65
2022-11-02T02:48:45.946Z,97.75
2022-11-02T02:51:20.397Z,97.94
2022-11-02T02:53:52.599Z,98.42
2022-11-02T02:56:23.257Z,98.09
2022-11-02T02:58:58.345Z,98.42
2022-11-02T03:01:26.587Z,98.17
2022-11-02T03:03:53.190Z,98.44
2022-11-02T03:06:30.814Z,98.35
2022-11-02T03:09:49.646Z,98.72
2022-11-02T03:12:47.129Z,98.34
2022-11-02T03:15:36.657Z,98.46
2022-11-02T03:18:03.610Z,98.80
2022-11-02T03:20:39.925Z,98.28
2022-11-02T03:23:20.440Z,98.50
2022-11-02T03:26:13.455Z,98.53
2022-11-02T03:28:56.444Z,98.53
2022-11-02T03:31:44.801Z,98.57
2022-11-02T03:34:29.989Z,98.11
2022-11-02T03:37:07.343Z,98.36
2022-11-02T03:39:41.647Z,98.24
2022-11-02T03:42:12.478Z,98.23
2022-11-02T03:44:40.156Z,98.02
2022-11-02T03:47:11.292Z,98.20
2022-11-02T03:49:39.611Z,97.81
2022-11-02T03:52:10.257Z,98.11
2022-11-02T03:54:54.118Z,98.40
2022-11-02T03:57:27.970Z,98.21
2022-11-02T04:00:06.442Z,98.02
2022-11-02T04:02:37.624Z,98.13
2022-11-02T04:05:04.499Z,98.04
2022-11-02T04:07:58.361Z,98.09
2022-11-02T04:10:25.919Z,97.81
2022-11-02T04:13:10.756Z,97.46
2022-11-02T04:15:37.194Z,98.32
2022-11-02T04:18:22.421Z,98.59
2022-11-02T04:20:52.255Z,98.30
2022-11-02T04:23:38.226Z,98.26
2022-11-02T04:26:05.450Z,98.17
2022-11-02T04:28:31.832Z,98.37
2022-11-02T04:30:59.914Z,98.27
2022-11-02T04:33:35.624Z,97.92
2022-11-02T04:36:04.096Z,97.18
2022-11-02T04:38:43.150Z,97.13
2022-11-02T04:41:30.762Z,97.48
2022-11-02T04:43:57.134Z,97.83
2022-11-02T04:46:25.511Z,97.64
2022-11-02T04:48:52.258Z,97.38
2022-11-02T04:51:20.593Z,96.88
2022-11-02T04:53:51.538Z,96.99
2022-11-02T04:56:18.007Z,97.11
2022-11-02T04:58:48.167Z,97.30
2022-11-02T05:01:15.836Z,97.41
2022-11-02T05:03:42.370Z,98.15
2022-11-02T05:06:12.313Z,98.19
2022-11-02T05:08:39.294Z,97.83
2022-11-02T05:11:05.973Z,98.43
2022-11-02T05:13:32.911Z,98.31
2022-11-02T05:16:00.169Z,98.45
2022-11-02T05:18:28.639Z,98.10
2022-11-02T05:20:57.919Z,97.84
2022-11-02T05:23:24.789Z,97.70
2022-11-02T05:25:58.750Z,97.37
2022-11-02T05:28:26.340Z,97.37
2022-11-02T05:30:54.315Z,97.00
2022-11-02T05:33:22.342Z,96.80
2022-11-02T05:35:50.912Z,97.17
2022-11-02T05:38:17.262Z,97.27
2022-11-02T05:40:43.658Z,97.14
2022-11-02T05:43:10.512Z,96.93
2022-11-02T05:45:37.154Z,96.76
2022-11-02T05:48:06.644Z,96.93
2022-11-02T05:50:33.518Z,97.09
2022-11-02T05:52:59.887Z,97.09
2022-11-02T05:55:26.394Z,97.30
2022-11-02T05:57:55.010Z,96.81
2022-11-02T06:00:22.749Z,97.73
2022-11-02T06:02:49.094Z,97.77
2022-11-02T06:05:15.671Z,97.28
2022-11-02T06:07:42.080Z,97.65
2022-11-02T06:10:08.602Z,97.65
2022-11-02T06:12:35.070Z,97.86
2022-11-02T06:15:01.478Z,98.15
2022-11-02T06:17:27.932Z,97.41
2022-11-02T06:19:54.275Z,97.54
2022-11-02T06:22:20.702Z,97.30
2022-11-02T06:24:47.138Z,96.85
2022-11-02T06:27:13.617Z,97.21
2022-11-02T06:29:39.938Z,97.68
2022-11-02T06:32:06.314Z,97.58
2022-11-02T06:34:32.661Z,97.18
2022-11-02T06:36:59.043Z,96.93
2022-11-02T06:39:25.599Z,96.27
2022-11-02T06:41:52.045Z,95.44
2022-11-02T06:44:18.474Z,94.98
2022-11-02T06:46:44.852Z,95.51
2022-11-02T06:49:11.206Z,95.37
2022-11-02T06:51:37.565Z,94.82
2022-11-02T06:54:08.435Z,94.40
2022-11-02T06:56:35.352Z,93.93
2022-11-02T06:59:01.700Z,93.54
2022-11-02T07:01:28.315Z,93.54
2022-11-02T07:03:54.878Z,93.33
2022-11-02T07:06:21.467Z,92.36
2022-11-02T07:08:47.820Z,86.87
2022-11-02T07:11:16.043Z,82.93
2022-11-02T07:13:42.679Z,78.92
2022-11-02T07:16:09.160Z,76.53
2022-11-02T07:18:35.687Z,78.05
2022-11-02T07:21:02.530Z,79.79
2022-11-02T07:23:29.155Z,78.16
2022-11-02T07:25:55.514Z,76.64
2022-11-02T07:28:22.035Z,76.28
2022-11-02T07:30:49.242Z,77.22
2022-11-02T07:33:15.674Z,79.50
2022-11-02T07:35:42.351Z,79.18
2022-11-02T07:38:09.738Z,78.62
2022-11-02T07:40:36.584Z,78.11
2022-11-02T07:43:04.307Z,76.93
2022-11-02T07:45:32.139Z,74.59
2022-11-02T07:47:58.531Z,74.26
2022-11-02T07:50:26.992Z,72.88
2022-11-02T07:52:55.711Z,71.43
2022-11-02T07:55:27.606Z,70.57
2022-11-02T07:57:54.918Z,68.22
2022-11-02T08:00:21.626Z,69.54
2022-11-02T08:02:48.235Z,66.50
2022-11-02T08:05:14.915Z,66.27
2022-11-02T08:07:41.245Z,68.07
2022-11-02T08:10:08.058Z,67.32
2022-11-02T08:12:34.399Z,64.23
2022-11-02T08:15:06.268Z,63.75
2022-11-02T08:17:33.817Z,62.87
2022-11-02T08:20:00.200Z,65.84
2022-11-02T08:22:26.526Z,64.65
2022-11-02T08:24:52.960Z,64.26
2022-11-02T08:27:19.314Z,66.59
2022-11-02T08:29:45.708Z,67.67
2022-11-02T08:32:12.794Z,64.55
2022-11-02T08:34:39.140Z,64.32
2022-11-02T08:37:07.345Z,64.11
2022-11-02T08:39:33.778Z,62.59
2022-11-02T08:42:00.167Z,61.06
2022-11-02T08:44:26.504Z,60.79
2022-11-02T08:49:24.303Z,61.17
2022-11-02T08:51:50.810Z,59.88
2022-11-02T08:54:17.351Z,58.18
2022-11-02T08:56:43.743Z,58.93
2022-11-02T08:59:10.387Z,59.66
2022-11-02T09:01:37.014Z,61.25
2022-11-02T09:04:03.440Z,59.74
2022-11-02T09:06:29.807Z,58.46
2022-11-02T09:08:58.052Z,58.77
2022-11-02T09:11:26.009Z,56.83
2022-11-02T09:13:56.636Z,58.11
2022-11-02T09:16:23.518Z,56.79
2022-11-02T09:18:49.931Z,56.71
2022-11-02T09:21:16.271Z,55.41
2022-11-02T09:23:42.781Z,52.27
2022-11-02T09:26:09.118Z,55.54
2022-11-02T09:28:35.453Z,51.80
2022-11-02T09:31:02.425Z,48.57
2022-11-02T09:33:30.202Z,47.97
2022-11-02T09:35:56.599Z,46.56
2022-11-02T09:38:22.985Z,46.92
2022-11-02T09:40:58.398Z,46.39
2022-11-02T09:43:33.828Z,44.05
2022-11-02T09:46:04.710Z,42.46
2022-11-02T09:48:45.335Z,37.01
2022-11-02T09:51:15.258Z,38.61
2022-11-02T09:53:45.320Z,37.43
2022-11-02T09:56:14.794Z,35.51
2022-11-02T09:58:44.330Z,34.04
2022-11-02T10:01:24.015Z,35.69
2022-11-02T10:04:05.627Z,35.27
2022-11-02T10:06:37.517Z,43.35
2022-11-02T10:09:10.545Z,46.55
2022-11-02T10:11:48.819Z,46.99
2022-11-02T10:14:23.932Z,43.35
2022-11-02T10:17:10.748Z,38.70
2022-11-02T10:19:44.609Z,38.64
2022-11-02T10:22:15.237Z,37.55
2022-11-02T10:24:43.334Z,38.12
2022-11-02T10:27:18.510Z,39.37
2022-11-02T10:29:57.122Z,42.46
2022-11-02T10:32:23.756Z,43.38
2022-11-02T10:34:58.483Z,46.17
2022-11-02T10:37:58.577Z,48.73
2022-11-02T10:40:42.826Z,49.56
2022-11-02T10:43:24.540Z,51.52
2022-11-02T10:46:13.834Z,52.34
2022-11-02T10:49:02.338Z,54.39
2022-11-02T10:51:29.605Z,56.72
2022-11-02T10:53:56.841Z,58.34
2022-11-02T10:56:33.450Z,61.17
2022-11-02T10:59:02.408Z,61.46
2022-11-02T11:01:31.737Z,62.18
2022-11-02T11:04:19.985Z,62.47
2022-11-02T11:06:46.875Z,62.59
2022-11-02T11:09:24.835Z,62.38
2022-11-02T11:12:06.903Z,59.45
2022-11-02T11:20:38.160Z,47.48
2022-11-02T11:23:27.741Z,45.48
2022-11-02T11:26:06.206Z,42.55
2022-11-02T11:28:52.259Z,43.57
2022-11-02T11:31:19.285Z,47.71
2022-11-02T11:33:51.680Z,51.44
2022-11-02T11:38:55.806Z,55.50
2022-11-02T11:41:23.170Z,56.60
2022-11-02T11:43:51.853Z,51.86
2022-11-02T11:46:20.905Z,49.78
2022-11-02T11:48:56.040Z,49.77
2022-11-02T11:51:27.645Z,48.35
2022-11-02T11:54:21.436Z,45.42
2022-11-02T11:56:49.077Z,43.38
2022-11-02T11:59:43.571Z,41.99
2022-11-02T12:02:43.952Z,40.12
2022-11-02T12:05:15.016Z,42.92
2022-11-02T12:08:06.971Z,45.55
2022-11-02T12:10:47.246Z,45.98
2022-11-02T12:13:38.251Z,42.96
2022-11-02T12:16:21.595Z,41.12
2022-11-02T12:21:43.101Z,40.16
2022-11-02T12:24:31.376Z,41.32
2022-11-02T12:27:35.683Z,39.44
2022-11-02T12:30:15.245Z,41.20
2022-11-02T12:32:54.685Z,43.46
2022-11-02T12:35:45.257Z,44.31
2022-11-02T12:38:49.885Z,43.78
2022-11-02T12:41:16.158Z,47.08
2022-11-02T12:43:53.784Z,48.35
2022-11-02T12:46:49.101Z,50.14
2022-11-02T12:49:27.621Z,50.80
2022-11-02T12:52:06.625Z,51.27
2022-11-02T12:54:42.595Z,53.23
2022-11-02T12:57:15.365Z,53.64
2022-11-02T12:59:43.946Z,54.50
2022-11-02T13:02:17.570Z,54.89
2022-11-02T13:04:59.712Z,55.79
2022-11-02T13:07:38.547Z,56.17
2022-11-02T13:10:15.758Z,55.52
2022-11-02T13:12:44.474Z,55.55
2022-11-02T13:15:17.425Z,55.69
2022-11-02T13:17:47.925Z,56.63
2022-11-02T13:20:26.072Z,55.03
2022-11-02T13:23:05.781Z,55.83
2022-11-02T13:25:40.606Z,54.30
2022-11-02T13:28:24.593Z,48.86
2022-11-02T13:30:52.230Z,46.18
2022-11-02T13:33:34.609Z,44.88
2022-11-02T13:36:01.011Z,44.62
2022-11-02T13:38:47.691Z,43.13
2022-11-02T13:41:48.392Z,44.98
2022-11-02T13:44:36.874Z,45.91
2022-11-02T13:47:22.215Z,41.99
2022-11-02T13:49:51.862Z,41.86
2022-11-02T13:52:30.060Z,41.23
2022-11-02T13:55:02.520Z,41.53
2022-11-02T13:57:37.353Z,37.73
2022-11-02T14:00:25.799Z,34.74
2022-11-02T14:03:18.384Z,36.19
2022-11-02T14:05:52.871Z,35.84
2022-11-02T14:08:28.940Z,33.90
2022-11-02T14:11:09.191Z,35.33
2022-11-02T14:13:53.904Z,34.83
2022-11-02T14:16:42.075Z,32.74
2022-11-02T14:19:19.389Z,32.31
2022-11-02T14:22:09.914Z,31.68
2022-11-02T14:24:36.380Z,30.86
2022-11-02T14:27:11.551Z,31.06
2022-11-02T14:29:38.710Z,31.09
2022-11-02T14:32:40.863Z,32.75
2022-11-02T14:35:16.486Z,34.85
2022-11-02T14:38:16.338Z,35.51
2022-11-02T14:41:11.102Z,37.97
2022-11-02T14:44:03.676Z,37.62
2022-11-02T14:46:57.338Z,38.86
2022-11-02T14:49:30.812Z,41.14
2022-11-02T14:52:03.857Z,41.18
2022-11-02T14:54:34.980Z,41.98
2022-11-02T14:57:24.746Z,43.03
2022-11-02T14:59:55.174Z,44.53
2022-11-02T15:02:29.674Z,45.84
2022-11-02T15:04:59.058Z,47.79
2022-11-02T15:07:40.177Z,48.90
2022-11-02T15:10:15.472Z,50.54
2022-11-02T15:12:49.050Z,52.66
2022-11-02T15:15:35.191Z,53.81
2022-11-02T15:18:24.959Z,55.04
2022-11-02T15:21:12.900Z,57.16
2022-11-02T15:23:42.319Z,58.05
2022-11-02T15:26:14.593Z,59.40
2022-11-02T15:28:44.449Z,60.93
2022-11-02T15:31:26.145Z,61.49
2022-11-02T15:34:02.839Z,63.17
2022-11-02T15:36:36.411Z,63.51
2022-11-02T15:39:08.743Z,64.65
2022-11-02T15:41:42.008Z,66.24
2022-11-02T15:44:32.595Z,67.30
2022-11-02T15:47:34.409Z,68.31
2022-11-02T15:50:08.164Z,69.17
2022-11-02T15:53:01.565Z,69.54
2022-11-02T15:55:42.651Z,70.67
2022-11-02T15:58:40.800Z,70.78
2022-11-02T16:01:25.322Z,71.26
2022-11-02T16:04:03.883Z,71.41
2022-11-02T16:06:34.857Z,72.33
2022-11-02T16:09:02.594Z,72.38
2022-11-02T16:11:29.440Z,71.87
2022-11-02T16:14:16.995Z,72.32
2022-11-02T16:16:50.331Z,72.73
2022-11-02T16:19:21.137Z,73.00
2022-11-02T16:21:49.442Z,72.92
2022-11-02T16:24:17.244Z,73.52
2022-11-02T16:26:46.341Z,74.00
2022-11-02T16:29:26.671Z,73.27
2022-11-02T16:31:53.087Z,74.52
2022-11-02T16:34:22.715Z,74.33
2022-11-02T16:36:49.343Z,74.20
2022-11-02T16:39:27.760Z,75.12
2022-11-02T16:41:58.036Z,74.28
2022-11-02T16:44:27.789Z,73.57
2022-11-02T16:47:09.886Z,73.90
2022-11-02T16:49:51.553Z,73.90
2022-11-02T16:52:21.609Z,74.83
2022-11-02T16:54:49.327Z,75.46
2022-11-02T16:57:25.092Z,75.52
2022-11-02T17:00:00.226Z,75.91
2022-11-02T17:02:41.551Z,75.91
2022-11-02T17:05:23.502Z,76.35
2022-11-02T17:07:52.893Z,76.66
2022-11-02T17:10:25.198Z,76.96
2022-11-02T17:12:51.686Z,77.75
2022-11-02T17:15:23.464Z,78.80
2022-11-02T17:18:16.454Z,79.33
2022-11-02T17:20:42.771Z,78.78
2022-11-02T17:23:33.274Z,78.70
2022-11-02T17:26:18.411Z,79.52
2022-11-02T17:28:46.829Z,79.59
2022-11-02T17:31:34.699Z,80.57
2022-11-02T17:34:17.412Z,80.24
2022-11-02T17:36:49.119Z,80.80
2022-11-02T17:39:17.084Z,81.10
2022-11-02T17:42:03.168Z,81.17
2022-11-02T17:44:29.606Z,81.74
2022-11-02T17:46:56.254Z,81.94
2022-11-02T17:49:22.717Z,82.12
2022-11-02T17:51:49.239Z,82.32
2022-11-02T17:54:15.772Z,82.91
2022-11-02T17:56:42.142Z,82.87
2022-11-02T17:59:08.551Z,82.41
2022-11-02T18:01:35.356Z,82.45
2022-11-02T18:04:02.849Z,82.65
2022-11-02T18:06:29.720Z,83.30
2022-11-02T18:09:10.905Z,82.51
2022-11-02T18:11:37.458Z,82.55
2022-11-02T18:14:05.198Z,82.52
2022-11-02T18:16:32.719Z,82.98
2022-11-02T18:18:59.132Z,84.04
2022-11-02T18:21:25.668Z,83.64
2022-11-02T18:23:52.081Z,83.41
2022-11-02T18:26:18.648Z,83.79
2022-11-02T18:28:45.119Z,84.39
2022-11-02T18:31:16.107Z,84.52
2022-11-02T18:33:43.374Z,84.69
2022-11-02T18:36:10.777Z,85.04
2022-11-02T18:38:38.915Z,85.25
2022-11-02T18:41:29.066Z,86.11
2022-11-02T18:44:14.642Z,85.67
2022-11-02T18:46:42.944Z,84.47
2022-11-02T18:49:09.700Z,83.99
2022-11-02T18:51:37.210Z,84.23
2022-11-02T18:54:07.060Z,84.06
2022-11-02T18:56:35.838Z,84.52
2022-11-02T18:59:03.457Z,84.52
2022-11-02T19:01:31.358Z,85.54
2022-11-02T19:04:02.064Z,85.77
2022-11-02T19:06:50.619Z,85.57
2022-11-02T19:09:18.888Z,85.78
2022-11-02T19:12:00.742Z,85.71
2022-11-02T19:14:30.039Z,85.53
2022-11-02T19:16:56.614Z,85.65
2022-11-02T19:19:24.155Z,85.32
2022-11-02T19:21:50.980Z,86.25
2022-11-02T19:24:20.824Z,85.51
2022-11-02T19:26:49.927Z,86.78
2022-11-02T19:29:16.749Z,85.87
2022-11-02T19:31:43.371Z,86.62
2022-11-02T19:34:12.083Z,85.70
2022-11-02T19:36:39.314Z,86.96
2022-11-02T19:39:09.129Z,87.88
2022-11-02T19:41:37.561Z,88.59
2022-11-02T19:44:04.618Z,88.83
2022-11-02T19:46:31.345Z,88.86
2022-11-02T19:48:58.259Z,89.97
2022-11-02T19:51:27.323Z,89.37
2022-11-02T19:53:56.436Z,89.15
2022-11-02T19:56:23.185Z,90.00
2022-11-02T19:58:51.621Z,89.60
2022-11-02T20:01:30.348Z,89.50
2022-11-02T20:03:57.810Z,90.38
2022-11-02T20:06:27.466Z,90.30
2022-11-02T20:09:01.675Z,89.61
2022-11-02T20:11:29.062Z,90.26
2022-11-02T20:14:01.253Z,89.87
2022-11-02T20:16:28.316Z,89.28
2022-11-02T20:18:55.938Z,89.94
2022-11-02T20:21:34.425Z,90.17
2022-11-02T20:24:04.154Z,90.36
2022-11-02T20:26:35.535Z,90.07
2022-11-02T20:29:04.882Z,89.52
2022-11-02T20:31:39.671Z,90.21
2022-11-02T20:34:08.168Z,90.06
2022-11-02T20:36:36.019Z,89.99
2022-11-02T20:39:04.785Z,90.00
2022-11-02T20:41:32.600Z,91.68
2022-11-02T20:43:59.618Z,92.72
2022-11-02T20:46:47.392Z,92.48
2022-11-02T20:49:21.568Z,91.59
2022-11-02T20:51:54.846Z,92.70
2022-11-02T20:54:22.673Z,93.80
2022-11-02T20:56:50.279Z,94.24
2022-11-02T20:59:18.948Z,93.97
2022-11-02T21:01:49.349Z,93.92
2022-11-02T21:04:20.729Z,94.92
2022-11-02T21:06:48.990Z,95.18
2022-11-02T21:09:17.285Z,95.76
2022-11-02T21:12:02.690Z,96.51
2022-11-02T21:14:29.383Z,96.34
2022-11-02T21:16:55.920Z,96.65
2022-11-02T21:19:22.432Z,96.15
2022-11-02T21:21:48.910Z,95.94
2022-11-02T21:24:15.614Z,96.13
2022-11-02T21:26:43.139Z,95.38
2022-11-02T21:29:09.823Z,94.63
2022-11-02T21:31:36.804Z,96.68
2022-11-02T21:34:05.625Z,96.30
2022-11-02T21:36:33.052Z,96.07
2022-11-02T21:39:00.544Z,96.51
2022-11-02T21:41:29.293Z,96.27
2022-11-02T21:43:56.156Z,96.01
2022-11-02T21:46:25.524Z,96.48
2022-11-02T21:48:52.361Z,96.55
2022-11-02T21:51:21.621Z,96.62
2022-11-02T21:53:50.044Z,96.94
2022-11-02T21:56:32.922Z,97.25
2022-11-02T21:58:59.527Z,96.77
2022-11-02T22:01:48.428Z,97.19
2022-11-02T22:04:28.919Z,96.71
2022-11-02T22:06:55.995Z,96.87
2022-11-02T22:09:22.484Z,97.55
2022-11-02T22:12:09.179Z,97.12
2022-11-02T22:14:36.930Z,97.38
2022-11-02T22:17:11.339Z,97.38
2022-11-02T22:19:49.166Z,97.08
2022-11-02T22:22:15.508Z,97.46
2022-11-02T22:24:44.720Z,97.25
2022-11-02T22:27:11.410Z,96.80
2022-11-02T22:29:37.745Z,97.35
2022-11-02T22:32:04.561Z,96.88
2022-11-02T22:34:31.043Z,97.48
2022-11-02T22:37:17.361Z,96.45
2022-11-02T22:39:43.709Z,97.33
2022-11-02T22:42:10.102Z,97.44
2022-11-02T22:44:36.542Z,97.10
2022-11-02T22:47:03.023Z,97.29
2022-11-02T22:49:29.436Z,97.04
2022-11-02T22:51:55.759Z,97.26
2022-11-02T22:54:22.095Z,97.00
2022-11-02T22:56:48.971Z,96.96
2022-11-02T22:59:15.944Z,97.57
2022-11-02T23:01:42.764Z,97.50
2022-11-02T23:04:11.372Z,97.25
2022-11-02T23:06:37.784Z,97.30
2022-11-02T23:09:05.147Z,97.80
2022-11-02T23:11:36.203Z,97.45
2022-11-02T23:14:04.270Z,96.95
2022-11-02T23:16:37.390Z,97.49
2022-11-02T23:19:29.161Z,97.97
2022-11-02T23:22:24.983Z,97.42
2022-11-02T23:25:12.825Z,98.29
2022-11-02T23:28:16.067Z,98.09
2022-11-02T23:31:01.889Z,97.87
2022-11-02T23:33:32.130Z,98.39
2022-11-02T23:36:10.902Z,98.45
2022-11-02T23:38:59.365Z,98.70
2022-11-02T23:41:26.356Z,98.29
2022-11-02T23:44:11.142Z,98.17
2022-11-02T23:46:45.099Z,98.69
2022-11-02T23:49:13.616Z,98.32
2022-11-02T23:51:58.884Z,98.51
2022-11-02T23:54:44.274Z,97.82
2022-11-02T23:57:11.090Z,98.21
2022-11-02T23:59:37.425Z,97.87
